Details From LIPE - BOLOGNA
To LSZC - Buochs
Flight Number -
Tags decoded
Created
Modified
Stats Distance 218 nm / 405 km
Max Altitude 0 ft / 0 m
Waypoints 10
Social Downloads 0
Likes 0
Share VATSIM

Download

Looking for another format? Having issues loading an existing format? Contact us
Advertisement - Login to hide

Notes

Requested: LIPE LUPOS UL995 CANNE UZ651 KELIP Z51 GERSA LSZC

Route

LIPE LUPOS UL995 CANNE UZ651 KELIP Z51 GERSA LSZC

ID Type Via Altitude Latitude Longitude Leg Dist Tot Dist Heading (true) Name
O LIPE APT - 0 ft / 0 m 44.53545˚ 11.28866˚ - 0 nm - BOLOGNA
LUPOS FIX - 0 ft / 0 m 44.50472˚ 10.58139˚ 30 nm 30 nm 267° / 266° -
PAR NDB UL995 (AWY-HI) 0 ft / 0 m 44.82229˚ 10.29327˚ 22 nm 53 nm 327° / 327° PARMA NDB
MAXIM FIX UL995 (AWY-HI) 0 ft / 0 m 45.02389˚ 10.08056˚ 15 nm 68 nm 323° / 323° -
TZO VOR UL995 (AWY-HI) 0 ft / 0 m 45.55916˚ 9.50722˚ 40 nm 108 nm 323° / 323° TREZZO VOR-DME
PEPAG FIX UL995 (AWY-HI) 0 ft / 0 m 45.98389˚ 9.07139˚ 31 nm 139 nm 325° / 324° -
CANNE FIX UL995 (AWY-HI) 0 ft / 0 m 46.16667˚ 8.88111˚ 13 nm 153 nm 324° / 324° -
KELIP FIX UZ651 (AWY-HI) 0 ft / 0 m 46.95611˚ 8.76167˚ 47 nm 200 nm 354° / 354° -
GERSA FIX Z51 (AWY-LO) 0 ft / 0 m 47.03944˚ 8.53222˚ 10 nm 211 nm 298° / 298° -
O LSZC APT - 0 ft / 0 m 46.97319˚ 8.39736˚ 6 nm 218 nm 234° / 234° Buochs

Altitude Profile

Advertisement - Login to hide

Weather


0- 5 10 15 20 25 30 35+ Temperature / ° C

Clouds and Precipitation
Forecast for 2018-05-20 18:00 UTC. Updated 6 hours ago

Ground ~20,000 ft ~40,000 ft Winds

LIPE

Details ICAO LIPE (BLQ)
Name BOLOGNA
Region Italy
Timezone Europe/Rome (UTC+2.0)
Stats Elevation 123 ft / 37 m (AMSL)
Location 44.535446° 11.288662°
Runways 1
Magnetic Variation 2.966° E

METAR

LIPE 202250Z 26005KT 9999 FEW080 17/14 Q1016

Decode

TAF

TAF LIPE 201700Z 2018/2118 10010KT 9999 SCT070 BECMG 2018/2020 VRB05KT

Decode

Departure Runways

ID Width Length Bearing (true) Bearing (mag) Surface Threshold Offset Overrun Length
12 148 ft / 45 m 9,185 ft / 2,800 m 116.78° 113.81° Asphalt 1,007 ft / 307 m 0 ft / 0 m
30 148 ft / 45 m 9,185 ft / 2,800 m 296.81° 293.84° Asphalt 1,188 ft / 362 m 200 ft / 61 m

LSZC

Details ICAO LSZC (BXO)
Name Buochs
Region Switzerland
Timezone Europe/Zurich (UTC+2.0)
Stats Elevation 1,475 ft / 450 m (AMSL)
Location 46.973188° 8.397360°
Runways 2
Magnetic Variation 2.358° E

METAR

LSZC 202320Z AUTO 26003KT 210V290 9999 FEW140 12/10 Q1015

Decode

TAF

Not found

Destination Runways

ID Width Length Bearing (true) Bearing (mag) Surface Threshold Offset Overrun Length
07L 131 ft / 40 m 6,570 ft / 2,002 m 64.09° 61.73° Asphalt 0 ft / 0 m 650 ft / 198 m
07R 131 ft / 40 m 4,827 ft / 1,471 m 64.00° 61.64° Asphalt 0 ft / 0 m 1,161 ft / 354 m
25L 131 ft / 40 m 4,827 ft / 1,471 m 244.02° 241.66° Asphalt 0 ft / 0 m 1,161 ft / 354 m
25R 131 ft / 40 m 6,570 ft / 2,002 m 244.11° 241.75° Asphalt 0 ft / 0 m 650 ft / 198 m